createdAt,value
2023-04-08T00:04:51.109Z,5.60
2023-04-08T00:10:52.976Z,5.60
2023-04-08T00:16:55.110Z,5.60
2023-04-08T00:22:56.923Z,5.70
2023-04-08T00:28:58.843Z,5.80
2023-04-08T00:35:00.906Z,5.90
2023-04-08T00:41:02.788Z,6.00
2023-04-08T00:47:05.377Z,5.80
2023-04-08T00:53:07.163Z,5.70
2023-04-08T00:59:09.014Z,5.80
2023-04-08T01:05:20.804Z,5.80
2023-04-08T01:11:22.919Z,5.80
2023-04-08T01:17:25.179Z,6.00
2023-04-08T01:23:37.301Z,5.90
2023-04-08T01:29:40.004Z,5.90
2023-04-08T01:35:42.082Z,5.90
2023-04-08T01:41:44.813Z,5.90
2023-04-08T01:47:48.413Z,5.90
2023-04-08T01:53:50.562Z,5.90
2023-04-08T01:59:53.447Z,5.90
2023-04-08T02:05:55.502Z,5.80
2023-04-08T02:11:59.020Z,5.90
2023-04-08T02:18:11.513Z,5.90
2023-04-08T02:24:15.795Z,5.90
2023-04-08T02:30:18.456Z,5.80
2023-04-08T02:36:20.760Z,5.80
2023-04-08T02:42:22.558Z,5.80
2023-04-08T02:48:24.592Z,5.80
2023-04-08T02:54:26.392Z,5.80
2023-04-08T03:00:28.314Z,5.80
2023-04-08T03:06:30.200Z,5.70
2023-04-08T03:12:32.091Z,5.80
2023-04-08T03:18:34.009Z,5.90
2023-04-08T03:24:36.662Z,5.80
2023-04-08T03:30:38.434Z,5.70
2023-04-08T03:36:40.305Z,5.60
2023-04-08T03:42:42.318Z,5.60
2023-04-08T03:48:44.083Z,5.50
2023-04-08T03:54:45.815Z,5.50
2023-04-08T04:00:47.604Z,5.50
2023-04-08T04:06:49.539Z,5.50
2023-04-08T04:12:51.506Z,5.70
2023-04-08T04:18:54.338Z,5.70
2023-04-08T04:24:56.518Z,5.80
2023-04-08T04:30:58.415Z,6.00
2023-04-08T04:37:00.788Z,5.90
2023-04-08T04:43:02.644Z,5.80
2023-04-08T04:49:04.483Z,5.60
2023-04-08T04:55:06.858Z,5.50
2023-04-08T05:01:08.803Z,5.50
2023-04-08T05:07:11.130Z,5.50
2023-04-08T05:13:13.147Z,5.70
2023-04-08T05:19:14.977Z,5.60
2023-04-08T05:25:17.192Z,5.70
2023-04-08T05:31:21.671Z,5.60
2023-04-08T05:37:23.694Z,5.50
2023-04-08T05:43:25.703Z,5.50
2023-04-08T05:49:27.575Z,5.60
2023-04-08T05:55:29.651Z,5.50
2023-04-08T06:01:31.578Z,5.50
2023-04-08T06:07:34.720Z,5.60
2023-04-08T06:13:37.496Z,5.60
2023-04-08T06:19:39.302Z,5.70
2023-04-08T06:25:42.150Z,5.60
2023-04-08T06:31:43.998Z,5.70
2023-04-08T06:37:46.392Z,5.70
2023-04-08T06:43:48.256Z,5.80
2023-04-08T06:49:50.061Z,5.90
2023-04-08T06:55:52.261Z,6.00
2023-04-08T07:01:54.692Z,5.90
2023-04-08T07:07:56.680Z,6.00
2023-04-08T07:13:58.524Z,6.20
2023-04-08T07:20:00.298Z,6.00
2023-04-08T07:26:06.063Z,6.10
2023-04-08T07:32:07.893Z,6.10
2023-04-08T07:38:11.664Z,6.30
2023-04-08T07:44:17.216Z,6.40
2023-04-08T07:50:19.184Z,6.30
2023-04-08T07:56:22.490Z,6.30
2023-04-08T08:02:24.802Z,6.30
2023-04-08T08:08:26.756Z,6.40
2023-04-08T08:14:29.945Z,7.00
2023-04-08T08:20:31.833Z,7.50
2023-04-08T08:26:39.433Z,7.60
2023-04-08T08:32:41.512Z,7.50
2023-04-08T08:38:43.375Z,7.40
2023-04-08T08:44:45.322Z,7.30
2023-04-08T08:50:47.490Z,7.40
2023-04-08T08:56:49.641Z,7.20
2023-04-08T09:02:51.612Z,7.70
2023-04-08T09:08:53.667Z,8.00
2023-04-08T09:15:09.008Z,7.80
2023-04-08T09:21:12.535Z,7.60
2023-04-08T09:27:14.487Z,7.80
2023-04-08T09:33:16.726Z,8.00
2023-04-08T09:39:18.996Z,8.10
2023-04-08T09:45:21.590Z,8.20
2023-04-08T09:51:25.580Z,8.00
2023-04-08T09:57:45.857Z,7.70
2023-04-08T10:03:55.267Z,7.60
2023-04-08T10:09:58.547Z,8.00
2023-04-08T10:16:30.392Z,7.80
2023-04-08T10:22:35.232Z,8.00
2023-04-08T10:28:37.028Z,8.00
2023-04-08T10:34:52.947Z,7.80
2023-04-08T10:40:55.233Z,8.00
2023-04-08T10:46:57.038Z,8.20
2023-04-08T10:52:58.991Z,8.20
2023-04-08T10:59:00.835Z,8.20
2023-04-08T11:05:03.438Z,8.20
2023-04-08T11:11:11.045Z,8.40
2023-04-08T11:17:16.373Z,8.60
2023-04-08T11:23:18.729Z,8.40
2023-04-08T11:29:21.373Z,8.50
2023-04-08T11:35:23.298Z,8.30
2023-04-08T11:41:37.896Z,8.50
2023-04-08T11:47:39.628Z,8.80
2023-04-08T11:53:41.471Z,9.40
2023-04-08T11:59:43.322Z,9.40
2023-04-08T12:05:45.078Z,9.30
2023-04-08T12:11:47.060Z,9.10
2023-04-08T12:17:49.043Z,8.90
2023-04-08T12:23:53.566Z,8.80
2023-04-08T12:29:55.754Z,8.70
2023-04-08T12:36:00.966Z,9.00
2023-04-08T12:42:03.261Z,9.20
2023-04-08T12:48:05.316Z,9.20
2023-04-08T12:54:07.327Z,9.30
2023-04-08T13:00:11.315Z,9.50
2023-04-08T13:06:13.309Z,9.40
2023-04-08T13:12:16.290Z,9.20
2023-04-08T13:18:18.047Z,8.90
2023-04-08T13:24:19.810Z,8.90
2023-04-08T13:30:24.433Z,9.20
2023-04-08T13:36:29.161Z,8.80
2023-04-08T13:42:34.349Z,8.80
2023-04-08T13:48:36.086Z,9.30
2023-04-08T13:54:38.081Z,9.30
2023-04-08T14:00:39.906Z,9.00
2023-04-08T14:06:41.735Z,8.80
2023-04-08T14:12:43.491Z,8.90
2023-04-08T14:18:46.741Z,8.80
2023-04-08T14:24:48.649Z,8.80
2023-04-08T14:30:50.590Z,8.90
2023-04-08T14:36:52.449Z,8.80
2023-04-08T14:42:54.335Z,8.90
2023-04-08T14:48:56.352Z,8.80
2023-04-08T14:54:58.197Z,8.80
2023-04-08T15:01:00.120Z,9.00
2023-04-08T15:07:02.982Z,9.10
2023-04-08T15:13:04.824Z,9.40
2023-04-08T15:19:06.809Z,9.50
2023-04-08T15:25:09.220Z,9.70
2023-04-08T15:31:11.885Z,9.30
2023-04-08T15:37:14.969Z,9.30
2023-04-08T15:43:16.838Z,9.30
2023-04-08T15:49:18.737Z,9.30
2023-04-08T15:55:20.864Z,9.00
2023-04-08T16:01:22.920Z,8.90
2023-04-08T16:07:24.998Z,8.80
2023-04-08T16:13:29.037Z,8.70
2023-04-08T16:19:31.094Z,8.70
2023-04-08T16:25:33.016Z,8.70
2023-04-08T16:31:34.915Z,8.70
2023-04-08T16:37:36.809Z,8.60
2023-04-08T16:43:38.750Z,8.50
2023-04-08T16:49:40.564Z,8.40
2023-04-08T16:55:42.465Z,8.40
2023-04-08T17:01:44.551Z,8.40
2023-04-08T17:07:46.457Z,8.40
2023-04-08T17:13:48.373Z,8.30
2023-04-08T17:19:50.329Z,8.30
2023-04-08T17:25:53.549Z,8.20
2023-04-08T17:31:55.551Z,8.10
2023-04-08T17:37:57.552Z,8.10
2023-04-08T17:43:59.481Z,8.10
2023-04-08T17:50:01.419Z,8.00
2023-04-08T17:56:03.446Z,7.90
2023-04-08T18:02:05.618Z,8.00
2023-04-08T18:08:07.527Z,8.00
2023-04-08T18:14:09.535Z,7.90
2023-04-08T18:20:11.789Z,7.90
2023-04-08T18:26:13.961Z,7.80
2023-04-08T18:32:16.276Z,7.80
2023-04-08T18:38:18.398Z,7.90
2023-04-08T18:44:20.476Z,7.90
2023-04-08T18:50:22.929Z,7.80
2023-04-08T18:56:24.699Z,7.80
2023-04-08T19:02:26.740Z,7.80
2023-04-08T19:08:29.320Z,7.70
2023-04-08T19:14:31.354Z,7.70
2023-04-08T19:20:33.752Z,7.70
2023-04-08T19:26:36.606Z,7.80
2023-04-08T19:32:38.696Z,7.80
2023-04-08T19:38:40.632Z,7.70
2023-04-08T19:44:42.477Z,7.70
2023-04-08T19:50:44.289Z,7.60
2023-04-08T19:56:46.082Z,7.60
2023-04-08T20:02:48.356Z,7.60
2023-04-08T20:08:52.689Z,7.60
2023-04-08T20:14:54.855Z,7.50
2023-04-08T20:20:56.808Z,7.50
2023-04-08T20:27:00.185Z,7.30
2023-04-08T20:33:02.202Z,7.10
2023-04-08T20:39:04.711Z,6.90
2023-04-08T20:45:07.373Z,6.80
2023-04-08T20:51:09.649Z,6.60
2023-04-08T20:57:11.479Z,6.50
2023-04-08T21:03:14.286Z,6.50
2023-04-08T21:09:16.501Z,6.40
2023-04-08T21:15:18.403Z,6.40
2023-04-08T21:21:20.702Z,6.40
2023-04-08T21:27:23.012Z,6.20
2023-04-08T21:33:24.875Z,6.00
2023-04-08T21:39:26.747Z,6.00
2023-04-08T21:45:28.979Z,5.90
2023-04-08T21:51:30.852Z,5.80
2023-04-08T21:57:32.737Z,5.50
2023-04-08T22:03:34.736Z,5.50
2023-04-08T22:09:36.677Z,5.40
2023-04-08T22:15:38.508Z,5.40
2023-04-08T22:21:40.346Z,5.30
2023-04-08T22:27:42.178Z,5.30
2023-04-08T22:33:44.032Z,5.20
2023-04-08T22:39:46.074Z,5.10
2023-04-08T22:45:47.860Z,5.00
2023-04-08T22:51:49.923Z,5.00
2023-04-08T22:57:52.029Z,5.00
2023-04-08T23:03:54.802Z,4.90
2023-04-08T23:09:56.598Z,4.80
2023-04-08T23:15:59.106Z,4.70
2023-04-08T23:22:01.067Z,4.80
2023-04-08T23:28:02.960Z,4.70
2023-04-08T23:34:04.696Z,4.80
2023-04-08T23:40:07.611Z,4.70
2023-04-08T23:46:09.546Z,4.70
2023-04-08T23:52:11.722Z,4.60
2023-04-08T23:58:13.807Z,4.60
